Terminal Aerodrome Forecast
Issued by NWS

Home | Current Version | Previous Version | Graphics & Text | Print | Product List | Glossary On
Versions: 1 2 3 4 5 6 7 8 9 10 11 12 13 14 15 16 17 18 19
599
FTUS42 KMHX 141133
TAFPGV
TAF
KPGV 141133Z 1412/1512 04008KT P6SM VCSH OVC040
     FM141500 04007KT P6SM VCSH OVC020
     FM142100 VRB03KT P6SM SCT008 OVC020
      AMD LTD TO CLD VIS AND WIND=

USA.gov is the U.S. government's official web portal to all federal, state and local government web resources and services.